createdAt,value
2022-11-22T00:00:42.220Z,0.19
2022-11-22T00:03:09.931Z,0.14
2022-11-22T00:05:37.207Z,0.12
2022-11-22T00:08:04.481Z,0.16
2022-11-22T00:10:31.932Z,0.17
2022-11-22T00:12:58.995Z,0.07
2022-11-22T00:15:26.020Z,-0.27
2022-11-22T00:17:53.188Z,-0.24
2022-11-22T00:20:20.061Z,-0.32
2022-11-22T00:22:47.058Z,-0.32
2022-11-22T00:25:14.752Z,-0.39
2022-11-22T00:27:41.733Z,-0.53
2022-11-22T00:30:09.813Z,-0.60
2022-11-22T00:32:37.093Z,-0.70
2022-11-22T00:35:04.698Z,-0.87
2022-11-22T00:37:31.873Z,-0.93
2022-11-22T00:39:58.771Z,-0.82
2022-11-22T00:42:25.758Z,-0.90
2022-11-22T00:44:52.727Z,-1.04
2022-11-22T00:47:19.781Z,-1.03
2022-11-22T00:49:46.721Z,-1.11
2022-11-22T00:52:13.990Z,-1.12
2022-11-22T00:54:41.041Z,-1.08
2022-11-22T00:57:07.905Z,-1.18
2022-11-22T00:59:34.832Z,-1.27
2022-11-22T01:02:01.770Z,-1.24
2022-11-22T01:04:28.781Z,-1.28
2022-11-22T01:06:55.957Z,-1.26
2022-11-22T01:09:24.523Z,-1.37
2022-11-22T01:11:51.766Z,-1.46
2022-11-22T01:14:19.868Z,-1.46
2022-11-22T01:16:47.291Z,-1.60
2022-11-22T01:19:15.987Z,-1.63
2022-11-22T01:21:42.949Z,-1.65
2022-11-22T01:24:10.299Z,-1.73
2022-11-22T01:26:37.424Z,-1.90
2022-11-22T01:29:05.282Z,-1.92
2022-11-22T01:31:32.590Z,-1.87
2022-11-22T01:33:59.683Z,-1.78
2022-11-22T01:36:27.626Z,-1.73
2022-11-22T01:38:54.693Z,-1.76
2022-11-22T01:41:22.160Z,-1.87
2022-11-22T01:43:49.599Z,-1.95
2022-11-22T01:46:35.147Z,-1.91
2022-11-22T01:49:13.637Z,-1.83
2022-11-22T01:51:49.807Z,-1.70
2022-11-22T01:54:22.861Z,-1.72
2022-11-22T01:56:55.360Z,-1.78
2022-11-22T01:59:26.829Z,-1.85
2022-11-22T02:01:54.709Z,-1.96
2022-11-22T02:04:23.970Z,-2.04
2022-11-22T02:08:11.896Z,-1.99
2022-11-22T02:10:50.629Z,-2.00
2022-11-22T02:13:40.811Z,-1.95
2022-11-22T02:16:25.612Z,-1.92
2022-11-22T02:19:06.725Z,-1.96
2022-11-22T02:21:54.957Z,-1.95
2022-11-22T02:25:18.286Z,-2.01
2022-11-22T02:27:52.910Z,-1.99
2022-11-22T02:30:19.974Z,-2.01
2022-11-22T02:32:46.882Z,-1.95
2022-11-22T02:35:23.912Z,-1.92
2022-11-22T02:37:55.612Z,-1.97
2022-11-22T02:40:23.617Z,-2.02
2022-11-22T02:42:59.101Z,-2.09
2022-11-22T02:45:26.075Z,-2.09
2022-11-22T02:47:53.048Z,-2.07
2022-11-22T02:50:20.030Z,-2.09
2022-11-22T02:52:46.877Z,-2.00
2022-11-22T02:55:13.893Z,-1.99
2022-11-22T02:57:40.828Z,-2.03
2022-11-22T03:00:08.307Z,-2.04
2022-11-22T03:02:35.207Z,-2.06
2022-11-22T03:05:02.152Z,-2.03
2022-11-22T03:07:29.085Z,-2.05
2022-11-22T03:09:56.063Z,-2.07
2022-11-22T03:12:23.007Z,-2.09
2022-11-22T03:14:49.930Z,-2.09
2022-11-22T03:17:16.999Z,-2.16
2022-11-22T03:19:43.969Z,-2.14
2022-11-22T03:22:11.717Z,-2.09
2022-11-22T03:24:38.774Z,-2.10
2022-11-22T03:27:05.670Z,-2.05
2022-11-22T03:29:32.808Z,-2.01
2022-11-22T03:31:59.903Z,-2.01
2022-11-22T03:34:26.906Z,-2.01
2022-11-22T03:36:53.810Z,-2.01
2022-11-22T03:39:20.678Z,-2.06
2022-11-22T03:41:47.597Z,-2.31
2022-11-22T03:44:14.534Z,-2.41
2022-11-22T03:46:41.547Z,-2.45
2022-11-22T03:49:08.521Z,-2.37
2022-11-22T03:51:35.433Z,-2.36
2022-11-22T03:54:02.303Z,-2.37
2022-11-22T03:56:29.251Z,-2.42
2022-11-22T03:58:56.134Z,-2.40
2022-11-22T04:01:23.163Z,-2.41
2022-11-22T04:03:50.244Z,-2.43
2022-11-22T04:06:17.135Z,-2.45
2022-11-22T04:08:44.252Z,-2.49
2022-11-22T04:11:11.181Z,-2.47
2022-11-22T04:13:56.517Z,-2.36
2022-11-22T04:16:23.535Z,-2.14
2022-11-22T04:18:50.431Z,-2.01
2022-11-22T04:21:35.788Z,-1.95
2022-11-22T04:24:28.110Z,-1.97
2022-11-22T04:26:55.910Z,-2.00
2022-11-22T04:29:23.744Z,-2.02
2022-11-22T04:32:09.825Z,-2.00
2022-11-22T04:34:37.515Z,-2.03
2022-11-22T04:37:05.983Z,-2.03
2022-11-22T04:39:33.587Z,-2.05
2022-11-22T04:42:19.614Z,-2.24
2022-11-22T04:44:46.788Z,-2.31
2022-11-22T04:47:35.015Z,-2.17
2022-11-22T04:50:03.085Z,-2.13
2022-11-22T04:52:48.777Z,-2.12
2022-11-22T04:55:15.779Z,-2.13
2022-11-22T04:57:42.694Z,-2.14
2022-11-22T05:00:10.246Z,-2.17
2022-11-22T05:02:37.174Z,-2.17
2022-11-22T05:05:04.129Z,-2.18
2022-11-22T05:07:31.242Z,-2.21
2022-11-22T05:09:58.214Z,-2.25
2022-11-22T05:12:25.155Z,-2.21
2022-11-22T05:14:52.131Z,-2.27
2022-11-22T05:17:19.122Z,-2.32
2022-11-22T05:19:49.166Z,-2.40
2022-11-22T05:22:17.690Z,-2.39
2022-11-22T05:24:44.609Z,-2.45
2022-11-22T05:27:11.496Z,-2.47
2022-11-22T05:29:38.398Z,-2.43
2022-11-22T05:32:05.375Z,-2.41
2022-11-22T05:34:32.269Z,-2.34
2022-11-22T05:36:59.464Z,-2.32
2022-11-22T05:39:26.454Z,-2.28
2022-11-22T05:41:56.278Z,-2.25
2022-11-22T05:44:24.258Z,-2.29
2022-11-22T05:46:51.313Z,-2.25
2022-11-22T05:49:18.248Z,-2.30
2022-11-22T05:51:45.227Z,-2.27
2022-11-22T05:54:12.204Z,-2.25
2022-11-22T05:56:39.723Z,-2.46
2022-11-22T05:59:06.583Z,-2.32
2022-11-22T06:01:33.516Z,-2.37
2022-11-22T06:04:00.465Z,-2.40
2022-11-22T06:06:27.357Z,-2.43
2022-11-22T06:08:54.362Z,-2.41
2022-11-22T06:11:23.638Z,-2.40
2022-11-22T06:13:52.802Z,-2.45
2022-11-22T06:16:19.851Z,-2.49
2022-11-22T06:18:47.089Z,-2.50
2022-11-22T06:21:16.742Z,-2.50
2022-11-22T06:23:44.109Z,-2.51
2022-11-22T06:26:16.635Z,-2.46
2022-11-22T06:28:44.782Z,-2.42
2022-11-22T06:31:26.788Z,-2.43
2022-11-22T06:33:55.442Z,-2.49
2022-11-22T06:36:25.320Z,-2.50
2022-11-22T06:38:52.989Z,-2.54
2022-11-22T06:41:22.373Z,-2.49
2022-11-22T06:43:51.155Z,-2.50
2022-11-22T06:46:20.566Z,-2.39
2022-11-22T06:48:48.222Z,-2.27
2022-11-22T06:51:19.649Z,-2.20
2022-11-22T06:53:48.767Z,-2.14
2022-11-22T06:56:36.042Z,-2.06
2022-11-22T06:59:05.196Z,-2.04
2022-11-22T07:01:34.219Z,-1.99
2022-11-22T07:04:02.351Z,-1.77
2022-11-22T07:06:35.076Z,-1.71
2022-11-22T07:09:03.614Z,-1.53
2022-11-22T07:11:32.171Z,-1.41
2022-11-22T07:14:06.877Z,-1.27
2022-11-22T07:16:36.111Z,-1.17
2022-11-22T07:19:03.095Z,-1.08
2022-11-22T07:21:30.170Z,-0.97
2022-11-22T07:23:57.143Z,-0.82
2022-11-22T07:26:25.958Z,-0.73
2022-11-22T07:28:53.127Z,-0.60
2022-11-22T07:31:20.762Z,-0.54
2022-11-22T07:33:48.255Z,-0.45
2022-11-22T07:36:20.395Z,-0.44
2022-11-22T07:38:48.712Z,-0.23
2022-11-22T07:41:16.791Z,-0.13
2022-11-22T07:43:44.463Z,0.01
2022-11-22T07:46:33.512Z,0.16
2022-11-22T07:49:01.831Z,0.09
2022-11-22T07:51:29.289Z,0.38
2022-11-22T07:53:56.825Z,0.50
2022-11-22T07:56:24.321Z,0.60
2022-11-22T07:58:51.253Z,0.69
2022-11-22T08:01:19.529Z,0.80
2022-11-22T08:03:46.757Z,0.86
2022-11-22T08:06:14.370Z,0.97
2022-11-22T08:08:41.920Z,1.00
2022-11-22T08:11:10.393Z,1.15
2022-11-22T08:13:37.364Z,1.23
2022-11-22T08:16:10.555Z,1.38
2022-11-22T08:18:38.615Z,1.45
2022-11-22T08:21:07.885Z,1.58
2022-11-22T08:23:35.370Z,1.70
2022-11-22T08:26:02.623Z,1.80
2022-11-22T08:28:29.648Z,1.97
2022-11-22T08:31:02.240Z,2.05
2022-11-22T08:33:29.286Z,2.13
2022-11-22T08:35:56.288Z,2.21
2022-11-22T08:38:23.254Z,2.30
2022-11-22T08:40:51.169Z,2.35
2022-11-22T08:43:18.385Z,2.44
2022-11-22T08:45:45.425Z,2.43
2022-11-22T08:48:13.175Z,2.57
2022-11-22T08:50:42.282Z,2.65
2022-11-22T08:53:10.411Z,2.72
2022-11-22T08:55:37.301Z,2.90
2022-11-22T08:58:04.220Z,2.98
2022-11-22T09:00:33.553Z,3.10
2022-11-22T09:03:00.717Z,3.13
2022-11-22T09:05:27.797Z,3.31
2022-11-22T09:10:41.711Z,3.58
2022-11-22T09:13:08.688Z,3.78
2022-11-22T09:15:35.625Z,3.96
2022-11-22T09:18:03.890Z,4.12
2022-11-22T09:20:30.834Z,4.27
2022-11-22T09:22:57.848Z,4.35
2022-11-22T09:25:24.702Z,4.41
2022-11-22T09:27:51.622Z,4.60
2022-11-22T09:30:18.831Z,4.74
2022-11-22T09:32:45.790Z,4.82
2022-11-22T09:35:13.020Z,4.86
2022-11-22T09:37:39.962Z,4.95
2022-11-22T09:40:07.627Z,4.99
2022-11-22T09:42:52.875Z,5.02
2022-11-22T09:45:42.722Z,5.09
2022-11-22T09:48:28.264Z,5.26
2022-11-22T09:51:08.266Z,5.40
2022-11-22T09:53:38.593Z,5.47
2022-11-22T09:56:12.321Z,5.27
2022-11-22T09:58:42.546Z,5.60
2022-11-22T10:01:19.881Z,5.64
2022-11-22T10:03:49.456Z,5.73
2022-11-22T10:06:32.824Z,5.84
2022-11-22T10:09:29.227Z,5.94
2022-11-22T10:12:07.508Z,5.97
2022-11-22T10:14:52.775Z,6.10
2022-11-22T10:17:22.505Z,6.26
2022-11-22T10:20:17.037Z,6.47
2022-11-22T10:22:44.438Z,6.52
2022-11-22T10:25:23.115Z,6.55
2022-11-22T10:28:11.549Z,6.70
2022-11-22T10:30:46.391Z,6.96
2022-11-22T10:33:36.288Z,7.10
2022-11-22T10:36:18.524Z,7.26
2022-11-22T10:38:54.434Z,7.36
2022-11-22T10:41:34.179Z,7.44
2022-11-22T10:44:16.081Z,7.35
2022-11-22T10:47:09.839Z,7.42
2022-11-22T10:50:01.287Z,7.37
2022-11-22T10:52:44.582Z,7.49
2022-11-22T10:55:23.293Z,7.43
2022-11-22T10:58:14.680Z,7.38
2022-11-22T11:00:45.565Z,7.29
2022-11-22T11:03:24.543Z,7.39
2022-11-22T11:06:43.641Z,7.35
2022-11-22T11:12:39.112Z,7.45
2022-11-22T11:15:17.763Z,7.45
2022-11-22T11:17:49.638Z,7.49
2022-11-22T11:20:28.989Z,7.57
2022-11-22T11:25:45.679Z,7.35
2022-11-22T11:28:23.031Z,7.49
2022-11-22T11:30:58.861Z,7.61
2022-11-22T11:33:33.115Z,7.65
2022-11-22T11:36:04.674Z,7.75
2022-11-22T11:38:42.375Z,7.78
2022-11-22T11:41:29.625Z,7.87
2022-11-22T11:43:58.956Z,7.84
2022-11-22T11:46:27.916Z,7.96
2022-11-22T11:49:21.111Z,7.98
2022-11-22T11:51:53.147Z,8.01
2022-11-22T11:54:26.883Z,8.12
2022-11-22T11:56:57.968Z,8.17
2022-11-22T11:59:43.890Z,8.19
2022-11-22T12:02:21.746Z,8.24
2022-11-22T12:04:54.605Z,8.29
2022-11-22T12:07:39.042Z,8.11
2022-11-22T12:10:41.329Z,7.75
2022-11-22T12:13:17.212Z,7.48
2022-11-22T12:16:11.011Z,7.46
2022-11-22T12:19:18.080Z,7.38
2022-11-22T12:22:48.299Z,7.36
2022-11-22T12:25:40.346Z,7.01
2022-11-22T12:28:19.935Z,7.33
2022-11-22T12:30:59.715Z,7.31
2022-11-22T12:33:33.863Z,7.30
2022-11-22T12:36:04.146Z,7.29
2022-11-22T12:38:41.246Z,7.31
2022-11-22T12:41:13.590Z,7.26
2022-11-22T12:43:50.416Z,7.25
2022-11-22T12:46:26.112Z,7.23
2022-11-22T12:48:59.508Z,7.21
2022-11-22T12:52:11.466Z,7.15
2022-11-22T12:54:55.301Z,6.86
2022-11-22T12:57:32.053Z,6.76
2022-11-22T13:00:05.123Z,6.71
2022-11-22T13:02:32.019Z,6.72
2022-11-22T13:05:05.718Z,6.65
2022-11-22T13:07:46.267Z,6.57
2022-11-22T13:10:42.436Z,6.52
2022-11-22T13:13:24.895Z,6.41
2022-11-22T13:15:57.225Z,6.38
2022-11-22T13:18:28.235Z,6.26
2022-11-22T13:21:26.350Z,6.13
2022-11-22T13:24:32.082Z,6.06
2022-11-22T13:27:04.884Z,5.98
2022-11-22T13:29:35.091Z,5.97
2022-11-22T13:32:05.905Z,5.87
2022-11-22T13:34:36.181Z,5.82
2022-11-22T13:37:10.074Z,5.80
2022-11-22T13:39:44.081Z,5.75
2022-11-22T13:42:17.910Z,5.76
2022-11-22T13:44:57.183Z,5.74
2022-11-22T13:47:24.118Z,5.69
2022-11-22T13:49:53.749Z,5.63
2022-11-22T13:52:20.983Z,5.61
2022-11-22T13:54:47.976Z,5.61
2022-11-22T13:57:26.083Z,5.47
2022-11-22T14:00:14.643Z,5.54
2022-11-22T14:02:46.340Z,5.48
2022-11-22T14:05:41.228Z,5.43
2022-11-22T14:08:30.845Z,5.34
2022-11-22T14:10:57.766Z,5.44
2022-11-22T14:13:52.440Z,5.48
2022-11-22T14:16:48.861Z,5.40
2022-11-22T14:19:33.657Z,5.38
2022-11-22T14:22:14.455Z,5.32
2022-11-22T14:25:19.015Z,5.29
2022-11-22T14:27:55.175Z,5.33
2022-11-22T14:30:53.908Z,5.22
2022-11-22T14:33:23.650Z,5.14
2022-11-22T14:36:09.745Z,5.13
2022-11-22T14:38:37.059Z,5.12
2022-11-22T14:41:28.689Z,5.10
2022-11-22T14:44:14.637Z,5.03
2022-11-22T14:46:53.125Z,4.92
2022-11-22T14:49:44.999Z,4.72
2022-11-22T14:52:24.825Z,4.67
2022-11-22T14:55:01.030Z,4.53
2022-11-22T14:57:31.148Z,4.39
2022-11-22T15:00:18.533Z,4.35
2022-11-22T15:03:13.068Z,4.31
2022-11-22T15:09:11.524Z,4.01
2022-11-22T15:09:23.701Z,4.15
2022-11-22T15:11:57.613Z,4.05
2022-11-22T15:14:52.253Z,4.02
2022-11-22T15:57:45.583Z,3.86
2022-11-22T16:00:30.883Z,3.85
2022-11-22T16:03:06.999Z,3.88
2022-11-22T16:06:08.554Z,3.93
2022-11-22T16:08:31.082Z,3.97
2022-11-22T16:10:59.808Z,4.01
2022-11-22T16:13:29.550Z,4.09
2022-11-22T16:16:11.281Z,4.11
2022-11-22T16:18:39.968Z,4.12
2022-11-22T16:21:20.660Z,4.10
2022-11-22T16:23:48.181Z,4.15
2022-11-22T16:26:18.109Z,4.21
2022-11-22T16:28:47.925Z,4.22
2022-11-22T16:31:29.036Z,4.22
2022-11-22T16:33:56.895Z,4.23
2022-11-22T16:36:28.309Z,4.24
2022-11-22T16:38:56.241Z,4.25
2022-11-22T16:41:30.652Z,4.30
2022-11-22T16:44:01.999Z,4.36
2022-11-22T16:46:28.950Z,4.39
2022-11-22T16:48:56.609Z,4.40
2022-11-22T16:51:24.731Z,4.42
2022-11-22T16:53:53.573Z,4.45
2022-11-22T16:56:28.882Z,4.44
2022-11-22T16:58:57.647Z,4.47
2022-11-22T17:01:27.538Z,4.47
2022-11-22T17:03:57.093Z,4.47
2022-11-22T17:06:26.519Z,4.48
2022-11-22T17:08:56.211Z,4.45
2022-11-22T17:11:30.603Z,4.43
2022-11-22T17:13:58.614Z,4.36
2022-11-22T17:16:25.581Z,4.38
2022-11-22T17:18:54.176Z,4.25
2022-11-22T17:21:37.326Z,4.28
2022-11-22T17:24:09.536Z,4.26
2022-11-22T17:26:36.609Z,4.32
2022-11-22T17:29:03.654Z,4.26
2022-11-22T17:31:30.766Z,4.20
2022-11-22T17:33:59.729Z,4.13
2022-11-22T17:36:30.643Z,4.10
2022-11-22T17:38:59.853Z,4.05
2022-11-22T17:41:27.762Z,4.16
2022-11-22T17:43:54.988Z,4.14
2022-11-22T17:46:22.595Z,4.08
2022-11-22T17:48:58.287Z,4.08
2022-11-22T17:51:29.286Z,4.08
2022-11-22T17:53:58.559Z,4.06
2022-11-22T17:56:27.360Z,3.91
2022-11-22T17:58:54.229Z,3.91
2022-11-22T18:01:22.885Z,3.88
2022-11-22T18:03:50.062Z,3.51
2022-11-22T18:06:18.618Z,3.82
2022-11-22T18:08:47.375Z,3.82
2022-11-22T18:11:15.580Z,3.81
2022-11-22T18:13:42.668Z,3.87
2022-11-22T18:16:15.815Z,3.92
2022-11-22T18:18:58.783Z,3.92
2022-11-22T18:21:30.057Z,3.93
2022-11-22T18:24:01.364Z,3.98
2022-11-22T18:26:39.320Z,3.52
2022-11-22T18:31:55.288Z,3.98
2022-11-22T18:34:25.559Z,3.74
2022-11-22T18:36:56.351Z,3.77
2022-11-22T18:39:26.910Z,3.81
2022-11-22T18:41:54.172Z,3.83
2022-11-22T19:10:45.695Z,3.57
2022-11-22T19:13:45.551Z,3.77
2022-11-22T19:19:32.365Z,3.72
2022-11-22T19:22:51.699Z,3.57
2022-11-22T19:25:26.848Z,3.50
2022-11-22T19:28:33.986Z,3.43
2022-11-22T19:31:21.682Z,3.37
2022-11-22T19:33:50.623Z,3.32
2022-11-22T19:36:34.189Z,3.19
2022-11-22T19:39:15.383Z,3.27
2022-11-22T19:42:19.167Z,3.33
2022-11-22T19:44:50.382Z,3.27
2022-11-22T19:47:19.710Z,3.10
2022-11-22T19:49:47.311Z,3.14
2022-11-22T19:52:15.375Z,3.35
2022-11-22T19:54:43.923Z,3.25
2022-11-22T19:57:12.124Z,3.33
2022-11-22T19:59:43.034Z,3.32
2022-11-22T20:02:11.567Z,2.88
2022-11-22T20:04:39.726Z,3.18
2022-11-22T20:07:09.350Z,3.18
2022-11-22T20:09:51.241Z,3.19
2022-11-22T20:34:58.442Z,2.82
2022-11-22T20:37:25.539Z,2.82
2022-11-22T20:39:52.440Z,2.82
2022-11-22T20:42:34.287Z,2.79
2022-11-22T20:45:01.698Z,2.68
2022-11-22T20:47:28.589Z,2.58
2022-11-22T20:49:55.554Z,2.57
2022-11-22T20:52:22.535Z,2.58
2022-11-22T20:54:49.430Z,2.52
2022-11-22T20:57:16.540Z,2.46
2022-11-22T20:59:43.596Z,2.10
2022-11-22T21:02:11.316Z,2.22
2022-11-22T21:04:38.250Z,2.21
2022-11-22T21:07:05.206Z,2.03
2022-11-22T21:09:32.160Z,1.89
2022-11-22T21:11:59.057Z,1.80
2022-11-22T21:14:25.946Z,1.73
2022-11-22T21:16:53.103Z,1.77
2022-11-22T21:19:20.070Z,1.76
2022-11-22T21:21:46.991Z,1.69
2022-11-22T21:24:14.257Z,1.63
2022-11-22T21:26:41.157Z,1.57
2022-11-22T21:29:16.188Z,1.53
2022-11-22T21:31:43.577Z,1.41
2022-11-22T21:34:10.675Z,1.42
2022-11-22T21:36:37.599Z,1.28
2022-11-22T21:39:04.567Z,1.29
2022-11-22T21:41:39.995Z,1.28
2022-11-22T21:44:08.761Z,1.30
2022-11-22T21:46:35.761Z,1.23
2022-11-22T21:49:02.667Z,1.15
2022-11-22T21:51:30.825Z,1.03
2022-11-22T21:53:59.196Z,0.91
2022-11-22T21:56:26.580Z,0.83
2022-11-22T21:58:53.534Z,0.81
2022-11-22T22:01:20.575Z,0.79
2022-11-22T22:03:47.517Z,0.79
2022-11-22T22:06:14.449Z,0.67
2022-11-22T22:08:41.450Z,0.54
2022-11-22T22:11:08.572Z,0.44
2022-11-22T22:13:35.649Z,0.44
2022-11-22T22:16:06.895Z,0.43
2022-11-22T22:18:35.460Z,0.38
2022-11-22T22:21:04.911Z,0.34
2022-11-22T22:23:33.476Z,0.32
2022-11-22T22:26:02.090Z,0.31
2022-11-22T22:28:30.541Z,0.26
2022-11-22T22:31:06.099Z,0.31
2022-11-22T22:33:33.920Z,0.31
2022-11-22T22:36:01.364Z,0.29
2022-11-22T22:38:31.060Z,0.26
2022-11-22T22:41:00.360Z,0.23
2022-11-22T22:43:31.539Z,0.13
2022-11-22T22:46:13.755Z,0.13
2022-11-22T22:48:41.589Z,0.04
2022-11-22T22:51:15.283Z,0.11
2022-11-22T22:53:43.064Z,0.12
2022-11-22T22:56:11.742Z,0.08
2022-11-22T22:58:38.982Z,0.10
2022-11-22T23:01:06.134Z,0.03
2022-11-22T23:03:33.296Z,-0.13
2022-11-22T23:06:04.117Z,-0.09
2022-11-22T23:08:30.981Z,-0.06
2022-11-22T23:11:12.059Z,-0.03
2022-11-22T23:13:41.030Z,0.02
2022-11-22T23:16:10.540Z,0.01
2022-11-22T23:18:45.002Z,-0.01
2022-11-22T23:21:14.627Z,-0.01
2022-11-22T23:23:41.867Z,-0.11
2022-11-22T23:26:11.347Z,-0.15
2022-11-22T23:28:38.835Z,-0.24
2022-11-22T23:31:07.791Z,-0.19
2022-11-22T23:33:35.334Z,-0.21
2022-11-22T23:36:06.943Z,-0.20
2022-11-22T23:38:34.223Z,-0.23
2022-11-22T23:41:01.385Z,-0.20
2022-11-22T23:43:29.015Z,-0.22
2022-11-22T23:45:56.309Z,-0.23
2022-11-22T23:48:23.205Z,-0.25
2022-11-22T23:50:50.140Z,-0.25
2022-11-22T23:53:17.059Z,-0.29
2022-11-22T23:55:43.982Z,-0.27
2022-11-22T23:58:10.957Z,-0.29
